sensor_id;sensor_type;location;lat;lon;timestamp;P1;durP1;ratioP1;P2;durP2;ratioP2
26484;SDS011;18083;50.560;7.262;2023-05-19T00:00:29;8.93;;;3.60;;
26484;SDS011;18083;50.560;7.262;2023-05-19T00:02:56;9.48;;;3.92;;
26484;SDS011;18083;50.560;7.262;2023-05-19T00:05:25;7.07;;;3.57;;
26484;SDS011;18083;50.560;7.262;2023-05-19T00:07:53;8.27;;;3.87;;
26484;SDS011;18083;50.560;7.262;2023-05-19T00:10:22;4.80;;;3.20;;
26484;SDS011;18083;50.560;7.262;2023-05-19T00:12:50;6.80;;;3.52;;
26484;SDS011;18083;50.560;7.262;2023-05-19T00:15:17;5.43;;;3.63;;
26484;SDS011;18083;50.560;7.262;2023-05-19T00:17:44;7.22;;;3.90;;
26484;SDS011;18083;50.560;7.262;2023-05-19T00:20:12;9.25;;;4.25;;
26484;SDS011;18083;50.560;7.262;2023-05-19T00:22:39;7.10;;;3.33;;
26484;SDS011;18083;50.560;7.262;2023-05-19T00:25:08;6.17;;;3.72;;
26484;SDS011;18083;50.560;7.262;2023-05-19T00:27:35;8.35;;;3.62;;
26484;SDS011;18083;50.560;7.262;2023-05-19T00:30:03;6.60;;;4.10;;
26484;SDS011;18083;50.560;7.262;2023-05-19T00:32:30;6.63;;;4.23;;
26484;SDS011;18083;50.560;7.262;2023-05-19T00:34:58;7.90;;;3.67;;
26484;SDS011;18083;50.560;7.262;2023-05-19T00:37:25;8.75;;;4.12;;
26484;SDS011;18083;50.560;7.262;2023-05-19T00:39:53;5.73;;;3.67;;
26484;SDS011;18083;50.560;7.262;2023-05-19T00:42:20;9.03;;;3.83;;
26484;SDS011;18083;50.560;7.262;2023-05-19T00:44:47;8.43;;;4.37;;
26484;SDS011;18083;50.560;7.262;2023-05-19T00:47:14;4.13;;;3.27;;
26484;SDS011;18083;50.560;7.262;2023-05-19T00:49:42;5.70;;;3.00;;
26484;SDS011;18083;50.560;7.262;2023-05-19T00:52:09;5.20;;;4.22;;
26484;SDS011;18083;50.560;7.262;2023-05-19T00:54:36;7.07;;;3.70;;
26484;SDS011;18083;50.560;7.262;2023-05-19T00:57:04;6.40;;;3.87;;
26484;SDS011;18083;50.560;7.262;2023-05-19T00:59:36;6.83;;;2.93;;
26484;SDS011;18083;50.560;7.262;2023-05-19T01:02:03;7.90;;;4.07;;
26484;SDS011;18083;50.560;7.262;2023-05-19T01:04:31;5.33;;;3.90;;
26484;SDS011;18083;50.560;7.262;2023-05-19T01:07:00;3.53;;;3.07;;
26484;SDS011;18083;50.560;7.262;2023-05-19T01:09:27;6.87;;;3.30;;
26484;SDS011;18083;50.560;7.262;2023-05-19T01:11:56;11.93;;;3.67;;
26484;SDS011;18083;50.560;7.262;2023-05-19T01:14:23;3.93;;;2.93;;
26484;SDS011;18083;50.560;7.262;2023-05-19T01:17:00;8.33;;;3.47;;
26484;SDS011;18083;50.560;7.262;2023-05-19T01:22:13;3.97;;;3.10;;
26484;SDS011;18083;50.560;7.262;2023-05-19T01:24:44;4.43;;;3.67;;
26484;SDS011;18083;50.560;7.262;2023-05-19T01:32:08;4.13;;;3.30;;
26484;SDS011;18083;50.560;7.262;2023-05-19T01:34:38;9.60;;;4.23;;
26484;SDS011;18083;50.560;7.262;2023-05-19T01:37:05;8.60;;;3.93;;
26484;SDS011;18083;50.560;7.262;2023-05-19T01:39:34;3.60;;;2.87;;
26484;SDS011;18083;50.560;7.262;2023-05-19T01:42:01;7.50;;;3.47;;
26484;SDS011;18083;50.560;7.262;2023-05-19T01:44:29;5.80;;;3.07;;
26484;SDS011;18083;50.560;7.262;2023-05-19T01:46:57;4.13;;;3.40;;
26484;SDS011;18083;50.560;7.262;2023-05-19T01:49:25;4.43;;;2.97;;
26484;SDS011;18083;50.560;7.262;2023-05-19T01:51:52;4.00;;;3.60;;
26484;SDS011;18083;50.560;7.262;2023-05-19T01:54:19;8.03;;;3.47;;
26484;SDS011;18083;50.560;7.262;2023-05-19T01:59:23;5.13;;;3.20;;
26484;SDS011;18083;50.560;7.262;2023-05-19T02:01:53;5.07;;;3.07;;
26484;SDS011;18083;50.560;7.262;2023-05-19T02:04:34;8.80;;;3.63;;
26484;SDS011;18083;50.560;7.262;2023-05-19T02:07:28;5.83;;;3.90;;
26484;SDS011;18083;50.560;7.262;2023-05-19T02:09:58;4.67;;;3.47;;
26484;SDS011;18083;50.560;7.262;2023-05-19T02:12:27;5.27;;;3.50;;
26484;SDS011;18083;50.560;7.262;2023-05-19T02:17:25;4.00;;;3.37;;
26484;SDS011;18083;50.560;7.262;2023-05-19T02:19:53;6.67;;;3.53;;
26484;SDS011;18083;50.560;7.262;2023-05-19T02:22:21;4.80;;;3.30;;
26484;SDS011;18083;50.560;7.262;2023-05-19T02:24:48;16.20;;;6.47;;
26484;SDS011;18083;50.560;7.262;2023-05-19T02:27:16;5.80;;;4.10;;
26484;SDS011;18083;50.560;7.262;2023-05-19T02:29:44;7.87;;;4.50;;
26484;SDS011;18083;50.560;7.262;2023-05-19T02:32:11;5.17;;;3.47;;
26484;SDS011;18083;50.560;7.262;2023-05-19T02:34:38;6.50;;;4.20;;
26484;SDS011;18083;50.560;7.262;2023-05-19T02:37:07;7.43;;;4.63;;
26484;SDS011;18083;50.560;7.262;2023-05-19T02:39:34;8.20;;;4.33;;
26484;SDS011;18083;50.560;7.262;2023-05-19T02:42:02;6.03;;;3.97;;
26484;SDS011;18083;50.560;7.262;2023-05-19T02:44:29;4.67;;;3.67;;
26484;SDS011;18083;50.560;7.262;2023-05-19T02:46:56;6.57;;;3.93;;
26484;SDS011;18083;50.560;7.262;2023-05-19T02:49:23;7.87;;;3.80;;
26484;SDS011;18083;50.560;7.262;2023-05-19T02:51:51;6.83;;;4.10;;
26484;SDS011;18083;50.560;7.262;2023-05-19T02:54:18;10.30;;;3.77;;
26484;SDS011;18083;50.560;7.262;2023-05-19T02:56:45;12.27;;;4.43;;
26484;SDS011;18083;50.560;7.262;2023-05-19T02:59:13;7.30;;;4.23;;
26484;SDS011;18083;50.560;7.262;2023-05-19T03:01:40;4.17;;;3.77;;
26484;SDS011;18083;50.560;7.262;2023-05-19T03:04:07;6.07;;;3.53;;
26484;SDS011;18083;50.560;7.262;2023-05-19T03:06:34;5.60;;;3.67;;
26484;SDS011;18083;50.560;7.262;2023-05-19T03:09:02;6.53;;;3.40;;
26484;SDS011;18083;50.560;7.262;2023-05-19T03:11:30;4.27;;;3.47;;
26484;SDS011;18083;50.560;7.262;2023-05-19T03:13:57;5.03;;;2.97;;
26484;SDS011;18083;50.560;7.262;2023-05-19T03:16:24;6.40;;;3.33;;
26484;SDS011;18083;50.560;7.262;2023-05-19T03:18:53;4.13;;;3.60;;
26484;SDS011;18083;50.560;7.262;2023-05-19T03:21:20;7.63;;;3.93;;
26484;SDS011;18083;50.560;7.262;2023-05-19T03:23:48;5.27;;;3.60;;
26484;SDS011;18083;50.560;7.262;2023-05-19T03:26:15;4.97;;;3.37;;
26484;SDS011;18083;50.560;7.262;2023-05-19T03:28:42;6.03;;;3.77;;
26484;SDS011;18083;50.560;7.262;2023-05-19T03:31:09;7.93;;;3.67;;
26484;SDS011;18083;50.560;7.262;2023-05-19T03:33:37;5.17;;;3.73;;
26484;SDS011;18083;50.560;7.262;2023-05-19T03:36:04;7.90;;;3.70;;
26484;SDS011;18083;50.560;7.262;2023-05-19T03:38:31;8.83;;;4.00;;
26484;SDS011;18083;50.560;7.262;2023-05-19T03:43:36;4.37;;;3.97;;
26484;SDS011;18083;50.560;7.262;2023-05-19T03:46:04;5.60;;;3.50;;
26484;SDS011;18083;50.560;7.262;2023-05-19T03:48:31;10.40;;;3.57;;
26484;SDS011;18083;50.560;7.262;2023-05-19T03:50:58;6.87;;;3.60;;
26484;SDS011;18083;50.560;7.262;2023-05-19T03:53:25;7.07;;;3.70;;
26484;SDS011;18083;50.560;7.262;2023-05-19T03:55:54;5.20;;;3.67;;
26484;SDS011;18083;50.560;7.262;2023-05-19T03:58:22;6.67;;;3.93;;
26484;SDS011;18083;50.560;7.262;2023-05-19T04:00:49;5.67;;;4.03;;
26484;SDS011;18083;50.560;7.262;2023-05-19T04:03:16;4.17;;;3.50;;
26484;SDS011;18083;50.560;7.262;2023-05-19T04:05:44;8.30;;;4.47;;
26484;SDS011;18083;50.560;7.262;2023-05-19T04:08:11;5.23;;;4.47;;
26484;SDS011;18083;50.560;7.262;2023-05-19T04:10:38;8.23;;;3.73;;
26484;SDS011;18083;50.560;7.262;2023-05-19T04:13:05;4.27;;;3.23;;
26484;SDS011;18083;50.560;7.262;2023-05-19T04:15:33;11.87;;;4.60;;
26484;SDS011;18083;50.560;7.262;2023-05-19T04:18:00;5.30;;;3.80;;
26484;SDS011;18083;50.560;7.262;2023-05-19T04:20:27;8.70;;;4.27;;
26484;SDS011;18083;50.560;7.262;2023-05-19T04:22:55;5.33;;;3.80;;
26484;SDS011;18083;50.560;7.262;2023-05-19T04:25:22;4.17;;;3.37;;
26484;SDS011;18083;50.560;7.262;2023-05-19T04:27:50;4.20;;;3.40;;
26484;SDS011;18083;50.560;7.262;2023-05-19T04:30:18;4.47;;;3.77;;
26484;SDS011;18083;50.560;7.262;2023-05-19T04:32:47;5.90;;;3.70;;
26484;SDS011;18083;50.560;7.262;2023-05-19T04:35:17;6.70;;;3.97;;
26484;SDS011;18083;50.560;7.262;2023-05-19T04:37:44;4.97;;;3.53;;
26484;SDS011;18083;50.560;7.262;2023-05-19T04:40:12;5.33;;;3.70;;
26484;SDS011;18083;50.560;7.262;2023-05-19T04:42:39;7.00;;;3.90;;
26484;SDS011;18083;50.560;7.262;2023-05-19T04:45:11;6.93;;;4.10;;
26484;SDS011;18083;50.560;7.262;2023-05-19T04:47:39;8.17;;;3.57;;
26484;SDS011;18083;50.560;7.262;2023-05-19T04:50:07;4.83;;;3.47;;
26484;SDS011;18083;50.560;7.262;2023-05-19T04:52:36;8.23;;;3.27;;
26484;SDS011;18083;50.560;7.262;2023-05-19T04:55:03;3.90;;;3.33;;
26484;SDS011;18083;50.560;7.262;2023-05-19T04:57:30;7.37;;;3.53;;
26484;SDS011;18083;50.560;7.262;2023-05-19T04:59:58;9.60;;;3.30;;
26484;SDS011;18083;50.560;7.262;2023-05-19T05:02:29;4.30;;;3.80;;
26484;SDS011;18083;50.560;7.262;2023-05-19T05:04:57;7.53;;;4.27;;
26484;SDS011;18083;50.560;7.262;2023-05-19T05:07:24;4.60;;;3.50;;
26484;SDS011;18083;50.560;7.262;2023-05-19T05:09:52;10.17;;;4.00;;
26484;SDS011;18083;50.560;7.262;2023-05-19T05:12:20;5.87;;;3.90;;
26484;SDS011;18083;50.560;7.262;2023-05-19T05:14:47;11.83;;;4.67;;
26484;SDS011;18083;50.560;7.262;2023-05-19T05:17:14;4.65;;;3.77;;
26484;SDS011;18083;50.560;7.262;2023-05-19T05:19:42;4.67;;;3.53;;
26484;SDS011;18083;50.560;7.262;2023-05-19T05:22:09;6.25;;;4.28;;
26484;SDS011;18083;50.560;7.262;2023-05-19T05:24:37;8.35;;;3.95;;
26484;SDS011;18083;50.560;7.262;2023-05-19T05:27:04;7.30;;;3.30;;
26484;SDS011;18083;50.560;7.262;2023-05-19T05:29:33;5.37;;;3.50;;
26484;SDS011;18083;50.560;7.262;2023-05-19T05:32:00;4.95;;;4.05;;
26484;SDS011;18083;50.560;7.262;2023-05-19T05:34:27;10.43;;;3.80;;
26484;SDS011;18083;50.560;7.262;2023-05-19T05:36:55;8.83;;;4.50;;
26484;SDS011;18083;50.560;7.262;2023-05-19T05:39:22;6.85;;;3.58;;
26484;SDS011;18083;50.560;7.262;2023-05-19T05:41:49;5.03;;;3.75;;
26484;SDS011;18083;50.560;7.262;2023-05-19T05:44:16;5.92;;;3.65;;
26484;SDS011;18083;50.560;7.262;2023-05-19T05:46:44;6.45;;;3.92;;
26484;SDS011;18083;50.560;7.262;2023-05-19T05:49:11;10.58;;;4.28;;
26484;SDS011;18083;50.560;7.262;2023-05-19T05:51:38;6.45;;;3.55;;
26484;SDS011;18083;50.560;7.262;2023-05-19T05:54:06;4.50;;;3.30;;
26484;SDS011;18083;50.560;7.262;2023-05-19T05:56:33;6.35;;;4.62;;
26484;SDS011;18083;50.560;7.262;2023-05-19T05:59:02;8.98;;;4.08;;
26484;SDS011;18083;50.560;7.262;2023-05-19T06:01:30;7.90;;;3.27;;
26484;SDS011;18083;50.560;7.262;2023-05-19T06:03:58;10.43;;;3.60;;
26484;SDS011;18083;50.560;7.262;2023-05-19T06:06:25;5.47;;;4.08;;
26484;SDS011;18083;50.560;7.262;2023-05-19T06:08:52;9.90;;;3.87;;
26484;SDS011;18083;50.560;7.262;2023-05-19T06:11:20;6.95;;;3.33;;
26484;SDS011;18083;50.560;7.262;2023-05-19T06:13:47;8.28;;;3.67;;
26484;SDS011;18083;50.560;7.262;2023-05-19T06:16:14;5.58;;;3.35;;
26484;SDS011;18083;50.560;7.262;2023-05-19T06:18:42;6.12;;;3.65;;
26484;SDS011;18083;50.560;7.262;2023-05-19T06:21:09;8.38;;;3.83;;
26484;SDS011;18083;50.560;7.262;2023-05-19T06:23:38;7.45;;;3.37;;
26484;SDS011;18083;50.560;7.262;2023-05-19T06:26:06;6.72;;;3.27;;
26484;SDS011;18083;50.560;7.262;2023-05-19T06:28:33;7.03;;;3.45;;
26484;SDS011;18083;50.560;7.262;2023-05-19T06:31:00;4.75;;;3.25;;
26484;SDS011;18083;50.560;7.262;2023-05-19T06:33:28;8.23;;;3.60;;
26484;SDS011;18083;50.560;7.262;2023-05-19T06:35:55;7.00;;;3.60;;
26484;SDS011;18083;50.560;7.262;2023-05-19T06:38:22;7.78;;;2.90;;
26484;SDS011;18083;50.560;7.262;2023-05-19T06:40:49;6.08;;;3.42;;
26484;SDS011;18083;50.560;7.262;2023-05-19T06:43:17;6.35;;;3.65;;
26484;SDS011;18083;50.560;7.262;2023-05-19T06:45:44;5.28;;;3.30;;
26484;SDS011;18083;50.560;7.262;2023-05-19T06:48:11;6.97;;;3.27;;
26484;SDS011;18083;50.560;7.262;2023-05-19T06:50:38;7.17;;;3.92;;
26484;SDS011;18083;50.560;7.262;2023-05-19T06:53:06;7.92;;;3.50;;
26484;SDS011;18083;50.560;7.262;2023-05-19T06:55:33;4.92;;;2.60;;
26484;SDS011;18083;50.560;7.262;2023-05-19T06:58:00;6.70;;;3.60;;
26484;SDS011;18083;50.560;7.262;2023-05-19T07:00:28;4.90;;;3.25;;
26484;SDS011;18083;50.560;7.262;2023-05-19T07:02:55;4.75;;;2.87;;
26484;SDS011;18083;50.560;7.262;2023-05-19T07:05:22;3.22;;;2.70;;
26484;SDS011;18083;50.560;7.262;2023-05-19T07:07:49;3.33;;;2.42;;
26484;SDS011;18083;50.560;7.262;2023-05-19T07:10:17;5.97;;;2.80;;
26484;SDS011;18083;50.560;7.262;2023-05-19T07:12:44;6.28;;;2.70;;
26484;SDS011;18083;50.560;7.262;2023-05-19T07:15:11;5.65;;;2.70;;
26484;SDS011;18083;50.560;7.262;2023-05-19T07:17:39;4.30;;;3.22;;
26484;SDS011;18083;50.560;7.262;2023-05-19T07:20:07;5.00;;;2.70;;
26484;SDS011;18083;50.560;7.262;2023-05-19T07:22:36;6.65;;;3.08;;
26484;SDS011;18083;50.560;7.262;2023-05-19T07:25:05;7.83;;;2.87;;
26484;SDS011;18083;50.560;7.262;2023-05-19T07:27:32;6.28;;;3.17;;
26484;SDS011;18083;50.560;7.262;2023-05-19T07:30:00;7.35;;;3.47;;
26484;SDS011;18083;50.560;7.262;2023-05-19T07:32:27;10.40;;;3.58;;
26484;SDS011;18083;50.560;7.262;2023-05-19T07:34:54;19.80;;;2.92;;
26484;SDS011;18083;50.560;7.262;2023-05-19T07:37:22;3.90;;;2.33;;
26484;SDS011;18083;50.560;7.262;2023-05-19T07:39:49;3.70;;;2.20;;
26484;SDS011;18083;50.560;7.262;2023-05-19T07:42:16;5.17;;;2.10;;
26484;SDS011;18083;50.560;7.262;2023-05-19T07:44:43;7.33;;;2.22;;
26484;SDS011;18083;50.560;7.262;2023-05-19T07:47:11;1.98;;;1.75;;
26484;SDS011;18083;50.560;7.262;2023-05-19T07:49:38;4.72;;;2.37;;
26484;SDS011;18083;50.560;7.262;2023-05-19T07:52:05;4.30;;;2.00;;
26484;SDS011;18083;50.560;7.262;2023-05-19T07:54:33;3.35;;;2.08;;
26484;SDS011;18083;50.560;7.262;2023-05-19T07:57:00;6.85;;;2.45;;
26484;SDS011;18083;50.560;7.262;2023-05-19T07:59:27;6.75;;;2.20;;
26484;SDS011;18083;50.560;7.262;2023-05-19T08:01:54;5.12;;;1.77;;
26484;SDS011;18083;50.560;7.262;2023-05-19T08:04:22;5.53;;;2.33;;
26484;SDS011;18083;50.560;7.262;2023-05-19T08:06:49;3.62;;;1.80;;
26484;SDS011;18083;50.560;7.262;2023-05-19T08:09:18;5.37;;;2.62;;
26484;SDS011;18083;50.560;7.262;2023-05-19T08:11:45;5.55;;;2.15;;
26484;SDS011;18083;50.560;7.262;2023-05-19T08:14:12;4.78;;;2.45;;
26484;SDS011;18083;50.560;7.262;2023-05-19T08:16:40;5.95;;;2.20;;
26484;SDS011;18083;50.560;7.262;2023-05-19T08:19:11;3.95;;;2.05;;
26484;SDS011;18083;50.560;7.262;2023-05-19T08:21:38;12.78;;;3.05;;
26484;SDS011;18083;50.560;7.262;2023-05-19T08:24:07;5.05;;;2.10;;
26484;SDS011;18083;50.560;7.262;2023-05-19T08:26:34;4.80;;;2.33;;
26484;SDS011;18083;50.560;7.262;2023-05-19T08:29:02;5.45;;;1.90;;
26484;SDS011;18083;50.560;7.262;2023-05-19T08:31:29;4.37;;;2.45;;
26484;SDS011;18083;50.560;7.262;2023-05-19T08:33:56;3.10;;;1.75;;
26484;SDS011;18083;50.560;7.262;2023-05-19T08:36:24;8.15;;;2.12;;
26484;SDS011;18083;50.560;7.262;2023-05-19T08:38:51;6.58;;;2.35;;
26484;SDS011;18083;50.560;7.262;2023-05-19T08:41:20;6.95;;;2.62;;
26484;SDS011;18083;50.560;7.262;2023-05-19T08:43:48;11.50;;;2.15;;
26484;SDS011;18083;50.560;7.262;2023-05-19T08:46:15;3.92;;;1.60;;
26484;SDS011;18083;50.560;7.262;2023-05-19T08:48:43;2.40;;;1.60;;
26484;SDS011;18083;50.560;7.262;2023-05-19T08:51:13;5.90;;;2.15;;
26484;SDS011;18083;50.560;7.262;2023-05-19T08:53:40;9.90;;;3.60;;
26484;SDS011;18083;50.560;7.262;2023-05-19T08:56:22;6.90;;;2.35;;
26484;SDS011;18083;50.560;7.262;2023-05-19T08:58:47;2.55;;;2.12;;
26484;SDS011;18083;50.560;7.262;2023-05-19T09:01:16;3.75;;;1.95;;
26484;SDS011;18083;50.560;7.262;2023-05-19T09:03:48;3.52;;;2.00;;
26484;SDS011;18083;50.560;7.262;2023-05-19T09:06:12;10.82;;;1.98;;
26484;SDS011;18083;50.560;7.262;2023-05-19T09:08:40;3.33;;;2.72;;
26484;SDS011;18083;50.560;7.262;2023-05-19T09:11:08;7.75;;;2.47;;
26484;SDS011;18083;50.560;7.262;2023-05-19T09:13:35;4.92;;;2.50;;
26484;SDS011;18083;50.560;7.262;2023-05-19T09:16:02;8.30;;;2.75;;
26484;SDS011;18083;50.560;7.262;2023-05-19T09:18:30;6.33;;;1.60;;
26484;SDS011;18083;50.560;7.262;2023-05-19T09:21:00;3.10;;;2.02;;
26484;SDS011;18083;50.560;7.262;2023-05-19T09:23:31;4.00;;;2.90;;
26484;SDS011;18083;50.560;7.262;2023-05-19T09:26:02;6.15;;;2.33;;
26484;SDS011;18083;50.560;7.262;2023-05-19T09:28:32;4.92;;;1.72;;
26484;SDS011;18083;50.560;7.262;2023-05-19T09:31:03;4.97;;;2.12;;
26484;SDS011;18083;50.560;7.262;2023-05-19T09:33:36;6.28;;;2.50;;
26484;SDS011;18083;50.560;7.262;2023-05-19T09:36:00;6.05;;;2.02;;
26484;SDS011;18083;50.560;7.262;2023-05-19T09:38:28;5.05;;;2.02;;
26484;SDS011;18083;50.560;7.262;2023-05-19T09:40:55;5.58;;;2.10;;
26484;SDS011;18083;50.560;7.262;2023-05-19T09:43:23;2.45;;;1.95;;
26484;SDS011;18083;50.560;7.262;2023-05-19T09:45:59;4.97;;;1.90;;
26484;SDS011;18083;50.560;7.262;2023-05-19T09:48:28;5.87;;;2.15;;
26484;SDS011;18083;50.560;7.262;2023-05-19T09:50:55;4.33;;;1.90;;
26484;SDS011;18083;50.560;7.262;2023-05-19T09:53:23;4.45;;;1.77;;
26484;SDS011;18083;50.560;7.262;2023-05-19T09:55:53;5.35;;;2.25;;
26484;SDS011;18083;50.560;7.262;2023-05-19T09:58:19;4.47;;;1.60;;
26484;SDS011;18083;50.560;7.262;2023-05-19T10:00:47;7.12;;;2.37;;
26484;SDS011;18083;50.560;7.262;2023-05-19T10:03:14;5.62;;;2.10;;
26484;SDS011;18083;50.560;7.262;2023-05-19T10:05:43;4.92;;;2.10;;
26484;SDS011;18083;50.560;7.262;2023-05-19T10:08:10;5.17;;;1.92;;
26484;SDS011;18083;50.560;7.262;2023-05-19T10:10:38;4.60;;;1.90;;
26484;SDS011;18083;50.560;7.262;2023-05-19T10:13:05;3.37;;;1.67;;
26484;SDS011;18083;50.560;7.262;2023-05-19T10:15:33;7.22;;;2.25;;
26484;SDS011;18083;50.560;7.262;2023-05-19T10:18:01;3.67;;;1.90;;
26484;SDS011;18083;50.560;7.262;2023-05-19T10:20:29;2.77;;;1.92;;
26484;SDS011;18083;50.560;7.262;2023-05-19T10:22:56;6.45;;;2.12;;
26484;SDS011;18083;50.560;7.262;2023-05-19T10:25:24;2.98;;;1.62;;
26484;SDS011;18083;50.560;7.262;2023-05-19T10:27:53;4.10;;;2.00;;
26484;SDS011;18083;50.560;7.262;2023-05-19T10:30:24;3.72;;;1.92;;
26484;SDS011;18083;50.560;7.262;2023-05-19T10:32:51;2.80;;;1.90;;
26484;SDS011;18083;50.560;7.262;2023-05-19T10:38:11;5.00;;;1.90;;
26484;SDS011;18083;50.560;7.262;2023-05-19T10:40:42;5.17;;;2.35;;
26484;SDS011;18083;50.560;7.262;2023-05-19T10:45:54;2.22;;;1.90;;
26484;SDS011;18083;50.560;7.262;2023-05-19T10:48:22;4.03;;;2.67;;
26484;SDS011;18083;50.560;7.262;2023-05-19T10:50:55;2.62;;;1.82;;
26484;SDS011;18083;50.560;7.262;2023-05-19T10:53:21;4.08;;;2.20;;
26484;SDS011;18083;50.560;7.262;2023-05-19T10:55:51;4.28;;;1.85;;
26484;SDS011;18083;50.560;7.262;2023-05-19T11:01:09;7.65;;;2.08;;
26484;SDS011;18083;50.560;7.262;2023-05-19T11:03:52;5.12;;;1.87;;
26484;SDS011;18083;50.560;7.262;2023-05-19T11:06:28;11.28;;;3.80;;
26484;SDS011;18083;50.560;7.262;2023-05-19T11:08:59;20.02;;;7.37;;
26484;SDS011;18083;50.560;7.262;2023-05-19T11:11:41;13.00;;;3.20;;
26484;SDS011;18083;50.560;7.262;2023-05-19T11:13:56;8.05;;;2.42;;
26484;SDS011;18083;50.560;7.262;2023-05-19T11:16:27;7.22;;;2.22;;
26484;SDS011;18083;50.560;7.262;2023-05-19T11:18:55;2.35;;;1.55;;
26484;SDS011;18083;50.560;7.262;2023-05-19T11:21:39;4.35;;;1.92;;
26484;SDS011;18083;50.560;7.262;2023-05-19T11:23:52;3.17;;;2.10;;
26484;SDS011;18083;50.560;7.262;2023-05-19T11:26:40;5.20;;;2.10;;
26484;SDS011;18083;50.560;7.262;2023-05-19T11:29:11;4.72;;;3.47;;
26484;SDS011;18083;50.560;7.262;2023-05-19T11:31:38;2.77;;;1.90;;
26484;SDS011;18083;50.560;7.262;2023-05-19T11:34:06;4.95;;;2.30;;
26484;SDS011;18083;50.560;7.262;2023-05-19T11:36:34;4.58;;;1.67;;
26484;SDS011;18083;50.560;7.262;2023-05-19T11:39:02;10.55;;;2.65;;
26484;SDS011;18083;50.560;7.262;2023-05-19T11:41:31;6.03;;;2.27;;
26484;SDS011;18083;50.560;7.262;2023-05-19T11:43:58;4.22;;;2.25;;
26484;SDS011;18083;50.560;7.262;2023-05-19T11:46:25;2.27;;;1.92;;
26484;SDS011;18083;50.560;7.262;2023-05-19T11:48:53;3.85;;;1.52;;
26484;SDS011;18083;50.560;7.262;2023-05-19T11:51:20;5.33;;;1.77;;
26484;SDS011;18083;50.560;7.262;2023-05-19T11:53:48;4.70;;;2.70;;
26484;SDS011;18083;50.560;7.262;2023-05-19T11:56:15;2.55;;;1.80;;
26484;SDS011;18083;50.560;7.262;2023-05-19T11:58:42;5.28;;;1.98;;
26484;SDS011;18083;50.560;7.262;2023-05-19T12:01:12;3.08;;;1.60;;
26484;SDS011;18083;50.560;7.262;2023-05-19T12:03:39;7.15;;;2.25;;
26484;SDS011;18083;50.560;7.262;2023-05-19T12:06:06;6.37;;;2.00;;
26484;SDS011;18083;50.560;7.262;2023-05-19T12:08:34;2.55;;;2.00;;
26484;SDS011;18083;50.560;7.262;2023-05-19T12:11:01;3.98;;;1.80;;
26484;SDS011;18083;50.560;7.262;2023-05-19T12:13:29;3.90;;;1.65;;
26484;SDS011;18083;50.560;7.262;2023-05-19T12:16:00;5.40;;;1.75;;
26484;SDS011;18083;50.560;7.262;2023-05-19T12:18:27;3.52;;;1.85;;
26484;SDS011;18083;50.560;7.262;2023-05-19T12:20:54;4.78;;;1.50;;
26484;SDS011;18083;50.560;7.262;2023-05-19T12:23:21;3.27;;;1.62;;
26484;SDS011;18083;50.560;7.262;2023-05-19T12:25:49;6.90;;;1.60;;
26484;SDS011;18083;50.560;7.262;2023-05-19T12:28:18;9.58;;;2.83;;
26484;SDS011;18083;50.560;7.262;2023-05-19T12:30:46;4.47;;;1.57;;
26484;SDS011;18083;50.560;7.262;2023-05-19T12:33:14;2.10;;;1.60;;
26484;SDS011;18083;50.560;7.262;2023-05-19T12:35:42;2.27;;;1.70;;
26484;SDS011;18083;50.560;7.262;2023-05-19T12:38:09;3.75;;;1.82;;
26484;SDS011;18083;50.560;7.262;2023-05-19T12:40:37;2.27;;;1.67;;
26484;SDS011;18083;50.560;7.262;2023-05-19T12:43:04;2.75;;;1.67;;
26484;SDS011;18083;50.560;7.262;2023-05-19T12:45:38;4.55;;;1.65;;
26484;SDS011;18083;50.560;7.262;2023-05-19T12:48:02;3.22;;;2.00;;
26484;SDS011;18083;50.560;7.262;2023-05-19T12:50:30;3.98;;;1.80;;
26484;SDS011;18083;50.560;7.262;2023-05-19T12:52:59;4.55;;;2.02;;
26484;SDS011;18083;50.560;7.262;2023-05-19T12:55:26;5.22;;;2.67;;
26484;SDS011;18083;50.560;7.262;2023-05-19T12:57:54;2.92;;;1.47;;
26484;SDS011;18083;50.560;7.262;2023-05-19T13:00:23;6.25;;;2.58;;
26484;SDS011;18083;50.560;7.262;2023-05-19T13:03:04;6.45;;;2.20;;
26484;SDS011;18083;50.560;7.262;2023-05-19T13:05:32;3.60;;;1.77;;
26484;SDS011;18083;50.560;7.262;2023-05-19T13:08:01;3.83;;;1.85;;
26484;SDS011;18083;50.560;7.262;2023-05-19T13:10:28;4.50;;;2.58;;
26484;SDS011;18083;50.560;7.262;2023-05-19T13:12:57;2.85;;;2.15;;
26484;SDS011;18083;50.560;7.262;2023-05-19T13:15:26;8.18;;;1.82;;
26484;SDS011;18083;50.560;7.262;2023-05-19T13:17:54;3.37;;;1.75;;
26484;SDS011;18083;50.560;7.262;2023-05-19T13:20:22;3.83;;;1.47;;
26484;SDS011;18083;50.560;7.262;2023-05-19T13:22:49;6.67;;;1.75;;
26484;SDS011;18083;50.560;7.262;2023-05-19T13:25:16;4.35;;;1.57;;
26484;SDS011;18083;50.560;7.262;2023-05-19T13:27:44;4.45;;;1.70;;
26484;SDS011;18083;50.560;7.262;2023-05-19T13:30:11;3.85;;;2.08;;
26484;SDS011;18083;50.560;7.262;2023-05-19T13:32:39;3.92;;;1.67;;
26484;SDS011;18083;50.560;7.262;2023-05-19T13:35:08;8.00;;;2.45;;
26484;SDS011;18083;50.560;7.262;2023-05-19T13:37:35;7.12;;;1.95;;
26484;SDS011;18083;50.560;7.262;2023-05-19T13:40:02;2.12;;;1.60;;
26484;SDS011;18083;50.560;7.262;2023-05-19T13:42:32;3.85;;;1.55;;
26484;SDS011;18083;50.560;7.262;2023-05-19T13:45:02;7.70;;;1.82;;
26484;SDS011;18083;50.560;7.262;2023-05-19T13:47:29;2.20;;;1.60;;
26484;SDS011;18083;50.560;7.262;2023-05-19T13:49:57;5.00;;;1.72;;
26484;SDS011;18083;50.560;7.262;2023-05-19T13:52:24;8.10;;;2.12;;
26484;SDS011;18083;50.560;7.262;2023-05-19T13:54:54;4.00;;;2.08;;
26484;SDS011;18083;50.560;7.262;2023-05-19T13:57:24;2.08;;;1.57;;
26484;SDS011;18083;50.560;7.262;2023-05-19T13:59:56;2.67;;;1.40;;
26484;SDS011;18083;50.560;7.262;2023-05-19T14:02:20;4.28;;;2.20;;
26484;SDS011;18083;50.560;7.262;2023-05-19T14:04:47;7.58;;;1.67;;
26484;SDS011;18083;50.560;7.262;2023-05-19T14:07:18;2.45;;;1.60;;
26484;SDS011;18083;50.560;7.262;2023-05-19T14:09:45;3.67;;;1.90;;
26484;SDS011;18083;50.560;7.262;2023-05-19T14:12:12;4.95;;;2.00;;
26484;SDS011;18083;50.560;7.262;2023-05-19T14:14:40;2.50;;;2.17;;
26484;SDS011;18083;50.560;7.262;2023-05-19T14:17:08;4.20;;;1.60;;
26484;SDS011;18083;50.560;7.262;2023-05-19T14:19:37;3.45;;;1.72;;
26484;SDS011;18083;50.560;7.262;2023-05-19T14:22:07;5.30;;;1.98;;
26484;SDS011;18083;50.560;7.262;2023-05-19T14:24:34;5.58;;;1.55;;
26484;SDS011;18083;50.560;7.262;2023-05-19T14:27:02;4.72;;;1.90;;
26484;SDS011;18083;50.560;7.262;2023-05-19T14:29:29;3.22;;;1.72;;
26484;SDS011;18083;50.560;7.262;2023-05-19T14:31:56;2.83;;;1.52;;
26484;SDS011;18083;50.560;7.262;2023-05-19T14:34:24;2.62;;;1.40;;
26484;SDS011;18083;50.560;7.262;2023-05-19T14:36:51;1.90;;;1.60;;
26484;SDS011;18083;50.560;7.262;2023-05-19T14:39:18;4.65;;;1.90;;
26484;SDS011;18083;50.560;7.262;2023-05-19T14:41:46;2.35;;;1.45;;
26484;SDS011;18083;50.560;7.262;2023-05-19T14:44:15;3.05;;;1.42;;
26484;SDS011;18083;50.560;7.262;2023-05-19T14:46:42;2.65;;;1.60;;
26484;SDS011;18083;50.560;7.262;2023-05-19T14:49:09;1.40;;;1.30;;
26484;SDS011;18083;50.560;7.262;2023-05-19T14:51:37;4.12;;;1.65;;
26484;SDS011;18083;50.560;7.262;2023-05-19T14:54:04;2.60;;;1.30;;
26484;SDS011;18083;50.560;7.262;2023-05-19T14:56:31;2.67;;;1.70;;
26484;SDS011;18083;50.560;7.262;2023-05-19T14:58:59;1.32;;;1.20;;
26484;SDS011;18083;50.560;7.262;2023-05-19T15:01:26;2.40;;;1.47;;
26484;SDS011;18083;50.560;7.262;2023-05-19T15:03:53;3.60;;;1.42;;
26484;SDS011;18083;50.560;7.262;2023-05-19T15:06:20;2.50;;;2.08;;
26484;SDS011;18083;50.560;7.262;2023-05-19T15:08:48;1.30;;;1.20;;
26484;SDS011;18083;50.560;7.262;2023-05-19T15:11:16;4.22;;;1.67;;
26484;SDS011;18083;50.560;7.262;2023-05-19T15:13:43;3.52;;;1.52;;
26484;SDS011;18083;50.560;7.262;2023-05-19T15:16:10;1.85;;;1.40;;